Time;durP1;ratioP1;P1;durP2;ratioP2;P2;SDS_P1;SDS_P2;PMS_P1;PMS_P2;Temp;Humidity;BMP_temperature;BMP_pressure;BME280_temperature;BME280_humidity;BME280_pressure;Samples;Min_cycle;Max_cycle;Signal;HPM_P1;HPM_P2
2023/04/22 00:00:38;;;;;;;4.22;2.55;;;13.70;95.60;;;;;;10377973;28;20029;-69
2023/04/22 00:05:40;;;;;;;3.58;2.70;;;13.70;95.60;;;;;;10362848;28;20030;-69
2023/04/22 00:10:41;;;;;;;3.78;2.63;;;13.70;95.60;;;;;;10369540;28;20053;-69
2023/04/22 00:15:41;;;;;;;3.42;2.60;;;13.60;95.60;;;;;;10374099;28;20573;-69
2023/04/22 00:20:43;;;;;;;3.55;2.55;;;13.60;95.60;;;;;;10369020;28;20049;-68
2023/04/22 00:25:43;;;;;;;4.35;2.42;;;13.60;95.60;;;;;;10373380;28;20021;-69
2023/04/22 00:30:44;;;;;;;3.60;2.30;;;13.60;95.70;;;;;;10383844;28;20033;-69
2023/04/22 00:35:47;;;;;;;3.15;2.40;;;13.50;95.60;;;;;;10371593;28;20025;-69
2023/04/22 00:40:48;;;;;;;3.33;2.40;;;13.50;95.70;;;;;;10373891;28;20077;-69
2023/04/22 00:45:49;;;;;;;3.85;2.28;;;13.50;95.70;;;;;;10372652;28;20369;-69
2023/04/22 00:50:50;;;;;;;3.40;2.47;;;13.50;95.70;;;;;;10369766;28;20014;-69
2023/04/22 00:55:50;;;;;;;3.50;2.33;;;13.50;95.70;;;;;;10372548;28;20034;-69
2023/04/22 01:00:51;;;;;;;2.88;2.20;;;13.40;95.70;;;;;;10371266;28;20029;-69
2023/04/22 01:05:52;;;;;;;3.45;2.33;;;13.40;95.70;;;;;;10370951;28;20032;-69
2023/04/22 01:10:53;;;;;;;2.88;2.03;;;13.40;95.70;;;;;;10373449;28;20301;-69
2023/04/22 01:15:54;;;;;;;3.10;1.88;;;13.40;95.70;;;;;;10371016;28;20052;-69
2023/04/22 01:20:56;;;;;;;4.05;1.98;;;13.30;95.60;;;;;;10366728;28;20092;-69
2023/04/22 01:25:57;;;;;;;2.35;2.13;;;13.40;95.70;;;;;;10374440;28;20036;-69
2023/04/22 01:30:58;;;;;;;2.70;2.00;;;13.30;95.60;;;;;;10372807;28;20036;-69
2023/04/22 01:35:59;;;;;;;3.10;2.20;;;13.30;95.60;;;;;;10366861;28;20497;-69
2023/04/22 01:41:01;;;;;;;3.20;2.08;;;13.20;95.60;;;;;;10372633;28;20026;-69
2023/04/22 01:46:04;;;;;;;3.65;2.63;;;13.20;95.60;;;;;;10368420;28;20026;-68
2023/04/22 01:51:05;;;;;;;2.40;2.03;;;13.20;95.60;;;;;;10370903;28;20025;-68
2023/04/22 01:56:05;;;;;;;3.38;2.03;;;13.20;95.60;;;;;;10372135;28;20042;-69
2023/04/22 02:01:09;;;;;;;3.00;2.15;;;13.20;95.60;;;;;;10369313;28;20048;-69
2023/04/22 02:06:10;;;;;;;2.97;2.22;;;13.20;95.60;;;;;;10368971;28;20021;-69
2023/04/22 02:11:10;;;;;;;3.25;2.33;;;13.10;95.60;;;;;;10368094;28;20030;-69
2023/04/22 02:16:11;;;;;;;3.13;2.45;;;13.10;95.50;;;;;;10371576;28;20025;-69
2023/04/22 02:21:12;;;;;;;3.40;2.30;;;13.10;95.50;;;;;;10375262;28;20041;-68
2023/04/22 02:26:12;;;;;;;3.75;2.15;;;13.10;95.50;;;;;;10371891;28;20436;-69
2023/04/22 02:31:13;;;;;;;4.20;2.92;;;13.10;95.60;;;;;;10368892;28;20048;-69
2023/04/22 02:36:13;;;;;;;3.15;2.28;;;13.00;95.50;;;;;;10368374;28;20045;-68
2023/04/22 02:41:14;;;;;;;4.15;2.70;;;13.00;95.50;;;;;;10370575;28;20420;-69
2023/04/22 02:46:21;;;;;;;4.80;2.60;;;13.00;95.50;;;;;;10372347;28;20074;-69
2023/04/22 02:51:22;;;;;;;3.53;2.75;;;13.00;95.50;;;;;;10367743;28;20079;-69
2023/04/22 02:56:22;;;;;;;4.95;3.20;;;13.00;95.50;;;;;;10367433;28;20057;-68
2023/04/22 03:01:23;;;;;;;3.72;2.47;;;12.90;95.50;;;;;;10366080;28;20029;-68
2023/04/22 03:06:23;;;;;;;4.18;2.63;;;12.90;95.50;;;;;;10380515;22;21143;-88
2023/04/22 03:11:25;;;;;;;3.95;2.63;;;13.40;95.60;;;;;;10410385;28;20030;-89
2023/04/22 03:16:25;;;;;;;3.88;2.90;;;13.40;95.60;;;;;;10408604;28;20045;-89
2023/04/22 03:21:27;;;;;;;3.40;2.65;;;13.80;95.70;;;;;;10413379;28;20405;-90
2023/04/22 03:26:28;;;;;;;4.70;2.80;;;13.30;95.60;;;;;;10412436;28;20018;-89
2023/04/22 03:31:28;;;;;;;3.95;2.80;;;13.80;95.70;;;;;;10405563;28;20025;-89
2023/04/22 03:36:30;;;;;;;3.72;2.70;;;12.90;95.70;;;;;;10416760;28;20029;-89
2023/04/22 03:41:30;;;;;;;3.80;2.72;;;13.60;95.60;;;;;;10409357;28;20051;-89
2023/04/22 03:46:31;;;;;;;4.50;2.90;;;13.50;95.60;;;;;;10405509;28;20049;-90
2023/04/22 03:51:31;;;;;;;4.07;2.67;;;12.80;95.40;;;;;;10404466;28;20021;-90
2023/04/22 03:56:32;;;;;;;3.35;2.47;;;13.00;95.40;;;;;;10407235;28;20230;-90
2023/04/22 04:01:33;;;;;;;3.95;2.97;;;12.70;95.40;;;;;;10416720;28;20067;-89
2023/04/22 04:06:33;;;;;;;5.20;2.80;;;12.70;95.40;;;;;;10414656;28;20025;-89
2023/04/22 04:11:34;;;;;;;3.72;2.88;;;13.40;95.50;;;;;;10405425;28;20057;-89
2023/04/22 04:16:35;;;;;;;3.92;2.92;;;12.60;95.40;;;;;;10408278;28;20024;-88
2023/04/22 04:21:36;;;;;;;4.55;2.90;;;13.50;95.60;;;;;;10420479;28;20024;-89
2023/04/22 04:26:37;;;;;;;5.57;3.40;;;12.60;95.40;;;;;;10418117;28;20070;-88
2023/04/22 04:31:46;;;;;;;5.13;2.92;;;13.50;95.60;;;;;;10407228;28;20041;-89
2023/04/22 04:36:47;;;;;;;4.28;2.70;;;12.60;95.40;;;;;;10411692;28;20029;-88
2023/04/22 04:41:48;;;;;;;3.38;2.67;;;13.20;95.50;;;;;;10414863;28;20032;-88
2023/04/22 04:46:49;;;;;;;3.85;2.90;;;13.70;95.60;;;;;;10419501;28;20599;-89
2023/04/22 04:51:50;;;;;;;4.43;3.00;;;13.00;95.50;;;;;;10411465;28;20024;-89
2023/04/22 04:56:50;;;;;;;3.28;2.58;;;13.20;95.50;;;;;;10414824;28;20369;-89
2023/04/22 05:01:51;;;;;;;4.20;2.70;;;13.50;95.50;;;;;;10419776;28;20021;-89
2023/04/22 05:06:52;;;;;;;3.10;2.63;;;13.30;95.50;;;;;;10427735;28;20520;-89
2023/04/22 05:11:52;;;;;;;3.35;2.67;;;13.20;95.50;;;;;;10421414;28;20140;-90
2023/04/22 05:16:53;;;;;;;4.45;2.85;;;13.60;95.50;;;;;;10418771;28;20029;-89
2023/04/22 05:21:54;;;;;;;3.63;2.60;;;12.80;95.40;;;;;;10425741;28;20067;-89
2023/04/22 05:26:56;;;;;;;3.42;2.75;;;13.40;95.50;;;;;;10424253;28;20036;-90
2023/04/22 05:31:57;;;;;;;3.10;2.80;;;12.40;95.20;;;;;;10427348;28;20028;-88
2023/04/22 05:36:57;;;;;;;3.53;2.78;;;13.30;95.40;;;;;;10420433;28;20029;-89
2023/04/22 05:41:58;;;;;;;3.65;2.60;;;12.40;95.20;;;;;;10401925;28;20120;-90
2023/04/22 05:46:58;;;;;;;4.88;2.88;;;13.20;95.40;;;;;;10426315;28;20112;-89
2023/04/22 05:52:00;;;;;;;2.97;2.58;;;12.90;95.30;;;;;;10421269;28;20132;-89
2023/04/22 05:57:01;;;;;;;3.33;2.88;;;13.10;95.30;;;;;;10408843;28;20021;-89
2023/04/22 06:02:01;;;;;;;4.85;3.40;;;13.50;95.40;;;;;;10412107;28;20045;-91
2023/04/22 06:07:02;;;;;;;4.90;3.28;;;12.50;95.40;;;;;;10412387;28;20076;-86
2023/04/22 06:12:03;;;;;;;3.72;2.60;;;12.50;95.10;;;;;;10415121;28;20133;-86
2023/04/22 06:17:04;;;;;;;4.40;3.00;;;12.50;95.10;;;;;;10422306;28;20104;-87
2023/04/22 06:22:04;;;;;;;5.47;3.45;;;12.50;95.10;;;;;;10413080;28;20116;-86
2023/04/22 06:27:05;;;;;;;4.30;3.35;;;12.50;95.00;;;;;;10421153;28;20031;-87
2023/04/22 06:32:05;;;;;;;4.13;3.25;;;12.50;95.00;;;;;;10416826;28;20025;-87
2023/04/22 06:37:07;;;;;;;5.10;3.40;;;13.20;95.20;;;;;;10423461;28;20542;-87
2023/04/22 06:42:08;;;;;;;4.28;3.00;;;12.60;95.00;;;;;;10423219;28;20102;-89
2023/04/22 06:47:08;;;;;;;3.85;3.00;;;12.60;95.00;;;;;;10411819;28;20040;-88
2023/04/22 06:52:09;;;;;;;4.00;2.85;;;12.70;95.00;;;;;;10404060;28;20026;-88
2023/04/22 06:57:10;;;;;;;6.57;3.55;;;12.60;95.00;;;;;;10405179;28;20520;-87
2023/04/22 07:02:10;;;;;;;4.05;3.05;;;12.60;94.90;;;;;;10405118;28;20021;-88
2023/04/22 07:07:11;;;;;;;5.03;3.20;;;12.60;94.90;;;;;;10418269;28;20063;-89
2023/04/22 07:12:13;;;;;;;4.53;3.35;;;12.60;94.90;;;;;;10412891;28;20025;-90
2023/04/22 07:17:14;;;;;;;5.85;3.58;;;12.70;94.90;;;;;;10413723;28;20037;-89
2023/04/22 07:22:15;;;;;;;4.28;3.15;;;12.70;94.90;;;;;;10421192;28;20809;-91
2023/04/22 07:27:16;;;;;;;5.72;3.42;;;12.70;94.80;;;;;;10422918;28;20048;-87
2023/04/22 07:32:16;;;;;;;6.75;4.00;;;13.40;95.30;;;;;;10400333;28;20033;-90
2023/04/22 07:37:18;;;;;;;5.05;3.30;;;13.10;94.90;;;;;;10421821;28;20016;-91
2023/04/22 07:42:19;;;;;;;4.32;3.30;;;13.90;95.10;;;;;;10392177;28;20034;-88
2023/04/22 07:47:20;;;;;;;5.32;4.05;;;12.80;94.80;;;;;;10424014;28;20037;-91
2023/04/22 07:52:20;;;;;;;6.40;4.65;;;12.80;94.80;;;;;;10410702;28;20148;-89
2023/04/22 07:57:21;;;;;;;8.57;5.38;;;13.30;95.20;;;;;;10420108;28;20033;-89
2023/04/22 08:02:22;;;;;;;8.40;4.97;;;12.90;95.10;;;;;;10414246;28;20022;-88
2023/04/22 08:07:22;;;;;;;10.02;5.05;;;13.00;95.20;;;;;;10413409;28;20033;-89
2023/04/22 08:12:23;;;;;;;11.05;5.57;;;13.00;95.20;;;;;;10419710;28;20242;-89
2023/04/22 08:17:24;;;;;;;8.75;5.10;;;13.40;95.30;;;;;;10411271;28;20113;-89
2023/04/22 08:22:24;;;;;;;9.00;5.57;;;13.20;95.30;;;;;;10415409;28;20033;-89
2023/04/22 08:27:25;;;;;;;8.23;5.53;;;13.10;95.30;;;;;;10403162;28;20029;-89
2023/04/22 08:32:27;;;;;;;9.55;5.55;;;14.20;95.50;;;;;;10406189;28;20022;-91
2023/04/22 08:37:28;;;;;;;8.63;5.30;;;14.00;95.60;;;;;;10415429;28;20115;-88
2023/04/22 08:42:29;;;;;;;8.73;5.65;;;13.30;95.40;;;;;;10421434;28;20033;-90
2023/04/22 08:47:34;;;;;;;8.80;5.00;;;13.30;95.40;;;;;;10414441;28;20079;-91
2023/04/22 08:52:34;;;;;;;10.13;6.35;;;13.90;95.60;;;;;;10414247;28;20025;-87
2023/04/22 08:57:37;;;;;;;6.85;5.18;;;13.40;95.50;;;;;;10401521;28;20026;-86
2023/04/22 09:02:44;;;;;;;9.27;5.88;;;13.40;95.50;;;;;;10420867;28;20397;-89
2023/04/22 09:07:45;;;;;;;9.40;5.43;;;14.00;95.70;;;;;;10410429;28;20064;-89
2023/04/22 09:12:47;;;;;;;8.80;5.53;;;13.50;95.70;;;;;;10413331;28;20066;-87
2023/04/22 09:17:50;;;;;;;8.05;5.25;;;13.50;95.70;;;;;;10414863;28;20025;-89
2023/04/22 09:22:52;;;;;;;7.18;5.07;;;13.60;95.70;;;;;;10411801;28;20061;-89
2023/04/22 09:27:55;;;;;;;7.60;4.50;;;13.70;95.80;;;;;;10412791;28;20036;-87
2023/04/22 09:32:59;;;;;;;7.53;5.47;;;13.80;95.80;;;;;;10415253;28;20037;-89
2023/04/22 09:38:03;;;;;;;8.55;4.93;;;14.70;96.10;;;;;;10413792;28;20029;-89
2023/04/22 09:43:08;;;;;;;11.50;6.25;;;13.90;95.80;;;;;;10394560;28;20033;-92
2023/04/22 09:48:19;;;;;;;11.70;7.07;;;15.10;96.90;;;;;;10409367;28;20057;-89
2023/04/22 09:53:20;;;;;;;12.57;7.63;;;14.40;96.80;;;;;;10427476;28;20087;-92
2023/04/22 09:58:26;;;;;;;12.15;7.82;;;16.10;97.00;;;;;;10421617;28;20112;-91
2023/04/22 10:03:27;;;;;;;14.55;8.77;;;16.00;97.10;;;;;;10421385;28;20083;-90
2023/04/22 10:08:29;;;;;;;15.85;8.57;;;15.50;96.90;;;;;;10415666;28;20034;-93
2023/04/22 10:13:30;;;;;;;12.93;8.13;;;15.30;97.00;;;;;;10412473;28;20041;-91
2023/04/22 10:18:31;;;;;;;13.60;8.07;;;16.10;97.00;;;;;;10416305;28;20196;-91
2023/04/22 10:23:32;;;;;;;12.88;7.80;;;16.40;97.00;;;;;;10417764;28;20021;-90
2023/04/22 10:28:43;;;;;;;12.38;7.75;;;15.90;96.90;;;;;;10400958;28;20049;-89
2023/04/22 10:33:44;;;;;;;12.60;7.97;;;16.00;96.90;;;;;;10404798;28;20041;-91
2023/04/22 10:38:53;;;;;;;13.02;7.57;;;16.90;97.00;;;;;;10408701;28;20017;-89
2023/04/22 10:44:06;;;;;;;13.38;8.23;;;16.40;97.30;;;;;;10412464;28;20029;-88
2023/04/22 10:49:17;;;;;;;14.25;7.70;;;16.30;96.90;;;;;;10411201;28;20025;-90
2023/04/22 10:59:27;;;;;;;12.23;6.88;;;16.70;97.00;;;;;;10414402;28;20116;-89
2023/04/22 11:04:28;;;;;;;11.48;7.45;;;17.40;96.80;;;;;;10407817;28;20108;-90
2023/04/22 11:09:28;;;;;;;9.55;6.53;;;16.80;96.80;;;;;;10395515;28;20120;-89
2023/04/22 11:14:29;;;;;;;12.35;7.07;;;17.10;96.80;;;;;;10413192;28;20048;-89
2023/04/22 11:19:30;;;;;;;10.77;7.07;;;18.00;96.90;;;;;;10386335;28;20040;-90
2023/04/22 11:24:31;;;;;;;12.18;7.80;;;17.10;96.70;;;;;;10410333;28;20032;-88
2023/04/22 11:29:32;;;;;;;11.98;7.78;;;17.40;96.60;;;;;;10413306;28;20133;-89
2023/04/22 11:34:32;;;;;;;12.27;7.32;;;17.10;96.50;;;;;;10410430;28;20440;-89
2023/04/22 11:39:37;;;;;;;15.00;6.57;;;17.10;96.50;;;;;;10425524;28;20028;-89
2023/04/22 11:44:39;;;;;;;13.65;6.60;;;17.20;96.40;;;;;;10416461;28;20022;-87
2023/04/22 11:49:40;;;;;;;10.05;7.43;;;17.60;96.50;;;;;;10415417;28;20682;-88
2023/04/22 11:54:40;;;;;;;13.13;7.80;;;17.40;96.40;;;;;;10412912;28;20029;-88
2023/04/22 11:59:42;;;;;;;10.90;7.05;;;18.60;96.50;;;;;;10414749;28;20477;-89
2023/04/22 12:04:43;;;;;;;14.82;8.38;;;17.90;96.10;;;;;;10403546;28;20030;-88
2023/04/22 12:09:43;;;;;;;12.77;7.53;;;18.20;95.90;;;;;;10404618;28;20048;-87
2023/04/22 12:14:45;;;;;;;12.27;7.22;;;18.50;95.50;;;;;;10424976;28;20052;-88
2023/04/22 12:19:46;;;;;;;10.80;6.78;;;18.60;95.40;;;;;;10431709;28;20404;-88
2023/04/22 12:24:47;;;;;;;11.43;7.28;;;18.30;95.40;;;;;;10422437;28;20071;-89
2023/04/22 12:29:52;;;;;;;9.30;5.90;;;18.90;95.80;;;;;;10416374;28;20490;-87
2023/04/22 12:34:54;;;;;;;6.35;4.90;;;18.20;95.60;;;;;;10413983;28;20021;-88
2023/04/22 12:39:54;;;;;;;9.05;5.43;;;18.40;95.30;;;;;;10428479;28;20021;-88
2023/04/22 12:44:55;;;;;;;9.48;5.32;;;18.40;95.10;;;;;;10419775;28;20052;-89
2023/04/22 12:49:57;;;;;;;10.63;5.45;;;18.40;95.10;;;;;;10419148;28;20171;-87
2023/04/22 12:54:58;;;;;;;8.30;5.53;;;18.40;95.00;;;;;;10427189;28;20040;-88
2023/04/22 12:59:59;;;;;;;10.65;6.18;;;18.40;95.00;;;;;;10422131;28;20025;-88
2023/04/22 13:05:00;;;;;;;8.75;5.82;;;18.50;95.10;;;;;;10419259;28;20025;-89
2023/04/22 13:10:01;;;;;;;11.00;5.90;;;18.30;95.30;;;;;;10406885;28;20040;-87
2023/04/22 13:15:02;;;;;;;8.85;6.03;;;18.10;95.50;;;;;;10422640;28;20033;-88
2023/04/22 13:20:08;;;;;;;12.18;7.68;;;17.80;95.90;;;;;;10407816;28;20033;-89
2023/04/22 13:25:09;;;;;;;12.05;7.10;;;17.60;96.30;;;;;;10428105;28;20496;-90
2023/04/22 13:30:10;;;;;;;10.45;6.47;;;18.20;96.60;;;;;;10416416;28;20040;-89
2023/04/22 13:35:11;;;;;;;10.25;6.18;;;17.30;96.60;;;;;;10407149;28;20492;-88
2023/04/22 13:40:12;;;;;;;10.93;6.10;;;17.20;96.70;;;;;;10421549;28;20060;-90
2023/04/22 13:45:12;;;;;;;8.23;5.22;;;17.10;96.80;;;;;;10424181;28;20045;-89
2023/04/22 13:50:13;;;;;;;8.20;4.95;;;17.20;97.00;;;;;;10416789;28;20022;-89
2023/04/22 13:55:14;;;;;;;9.93;5.50;;;17.20;97.00;;;;;;10415806;28;20456;-89
2023/04/22 14:00:14;;;;;;;9.50;4.93;;;16.90;97.00;;;;;;10403824;28;20025;-88
2023/04/22 14:05:15;;;;;;;7.85;5.32;;;16.90;97.00;;;;;;10418757;28;20060;-90
2023/04/22 14:10:19;;;;;;;7.60;5.15;;;16.90;97.00;;;;;;10418103;28;20024;-91
2023/04/22 14:15:20;;;;;;;8.68;5.20;;;17.50;97.30;;;;;;10404639;28;20508;-91
2023/04/22 14:20:23;;;;;;;7.40;4.70;;;16.90;97.10;;;;;;10407387;28;20040;-89
2023/04/22 14:25:24;;;;;;;7.20;4.68;;;16.70;97.10;;;;;;10413845;28;20514;-90
2023/04/22 14:30:25;;;;;;;7.95;4.40;;;16.80;97.10;;;;;;10408436;28;20120;-88
2023/04/22 14:35:25;;;;;;;10.20;4.18;;;16.60;97.20;;;;;;10419868;28;20028;-90
2023/04/22 14:40:28;;;;;;;5.85;3.95;;;16.60;97.20;;;;;;10413651;28;20477;-90
2023/04/22 14:45:31;;;;;;;6.10;4.15;;;16.60;97.30;;;;;;10397617;28;20060;-91
2023/04/22 14:50:32;;;;;;;7.22;4.30;;;16.50;97.30;;;;;;10409713;28;20515;-89
2023/04/22 14:55:34;;;;;;;7.53;4.10;;;16.40;97.30;;;;;;10417303;28;20013;-91
2023/04/22 15:00:34;;;;;;;6.93;4.07;;;17.10;97.60;;;;;;10413494;28;20120;-90
2023/04/22 15:05:35;;;;;;;5.65;4.47;;;16.60;97.50;;;;;;10415924;28;20045;-91
2023/04/22 15:10:36;;;;;;;6.10;4.63;;;16.30;97.50;;;;;;10416308;28;20029;-92
2023/04/22 15:15:36;;;;;;;6.68;4.43;;;16.20;97.50;;;;;;10418421;28;20035;-90
2023/04/22 15:20:37;;;;;;;6.78;4.28;;;16.40;97.60;;;;;;10389025;28;20509;-91
2023/04/22 15:25:39;;;;;;;7.82;5.22;;;16.10;97.60;;;;;;10419627;28;20558;-91
2023/04/22 15:30:40;;;;;;;6.45;4.60;;;16.10;97.70;;;;;;10407005;28;20091;-90
2023/04/22 15:35:48;;;;;;;8.27;5.15;;;16.50;97.80;;;;;;10422403;28;20026;-92
2023/04/22 15:40:52;;;;;;;6.65;4.47;;;16.10;97.80;;;;;;10420262;28;20055;-91
2023/04/22 15:45:55;;;;;;;7.75;5.00;;;16.10;97.70;;;;;;10404999;28;20648;-90
2023/04/22 15:50:56;;;;;;;6.28;4.78;;;16.00;97.70;;;;;;10422059;28;20052;-91
2023/04/22 15:55:57;;;;;;;7.28;4.60;;;16.00;97.70;;;;;;10400931;28;20045;-91
2023/04/22 16:00:58;;;;;;;5.85;4.45;;;15.90;97.70;;;;;;10412810;28;20029;-91
2023/04/22 16:05:59;;;;;;;7.03;4.88;;;15.90;97.80;;;;;;10406325;28;20095;-92
2023/04/22 16:11:00;;;;;;;8.18;3.90;;;16.50;97.90;;;;;;10413946;28;20033;-91
2023/04/22 16:16:01;;;;;;;6.28;4.53;;;16.10;97.70;;;;;;10419270;28;20037;-94
2023/04/22 16:21:03;;;;;;;7.55;4.40;;;15.90;97.70;;;;;;10417178;28;20021;-90
2023/04/22 16:26:04;;;;;;;8.07;4.78;;;16.30;97.80;;;;;;10418798;28;20079;-89
2023/04/22 16:31:05;;;;;;;6.50;4.13;;;16.00;97.90;;;;;;10412850;28;20017;-92
2023/04/22 16:36:07;;;;;;;8.50;4.97;;;15.80;97.70;;;;;;10417838;28;20014;-92
2023/04/22 16:41:13;;;;;;;7.82;4.53;;;15.80;97.80;;;;;;10416498;28;20026;-91
2023/04/22 16:46:14;;;;;;;8.50;5.07;;;15.90;97.80;;;;;;10409579;28;20083;-91
2023/04/22 16:51:15;;;;;;;7.10;4.70;;;16.00;97.80;;;;;;10417542;28;20134;-91
2023/04/22 16:56:15;;;;;;;7.65;5.22;;;15.70;97.70;;;;;;10395766;28;20025;-92
2023/04/22 17:01:16;;;;;;;9.05;5.00;;;16.60;98.00;;;;;;10385971;28;20556;-89
2023/04/22 17:06:17;;;;;;;9.27;5.43;;;15.70;97.90;;;;;;10407496;28;20036;-91
2023/04/22 17:11:18;;;;;;;9.45;5.32;;;16.20;98.00;;;;;;10404042;28;20076;-89
2023/04/22 17:16:18;;;;;;;8.15;5.20;;;16.30;98.10;;;;;;10411076;28;20022;-91
2023/04/22 17:21:19;;;;;;;7.72;5.32;;;15.60;97.90;;;;;;10405235;28;20022;-90
2023/04/22 17:26:21;;;;;;;9.57;5.65;;;16.40;98.20;;;;;;10411332;28;20071;-92
2023/04/22 17:31:22;;;;;;;10.30;6.45;;;15.60;98.00;;;;;;10400636;28;20432;-91
2023/04/22 17:36:23;;;;;;;8.52;5.60;;;15.80;98.10;;;;;;10407775;28;20026;-93
2023/04/22 17:41:23;;;;;;;9.25;6.25;;;15.50;98.10;;;;;;10406273;28;20045;-93
2023/04/22 17:46:24;;;;;;;9.95;5.93;;;15.50;98.10;;;;;;10405124;28;20430;-90
2023/04/22 17:51:26;;;;;;;8.15;5.38;;;15.70;98.20;;;;;;10404612;28;20029;-89
2023/04/22 17:56:27;;;;;;;8.68;5.35;;;15.40;98.20;;;;;;10409862;28;20021;-90
2023/04/22 18:01:28;;;;;;;7.88;5.88;;;15.40;98.20;;;;;;10401552;28;20486;-90
2023/04/22 18:06:29;;;;;;;8.82;5.57;;;15.30;98.20;;;;;;10412863;28;20554;-89
2023/04/22 18:11:30;;;;;;;10.38;5.95;;;16.20;98.40;;;;;;10408840;28;20033;-90
2023/04/22 18:16:31;;;;;;;9.50;5.60;;;15.30;98.20;;;;;;10402324;28;20029;-90
2023/04/22 18:21:32;;;;;;;9.30;5.90;;;15.40;98.20;;;;;;10407989;28;20025;-90
2023/04/22 18:26:33;;;;;;;8.50;6.15;;;15.70;98.30;;;;;;10401890;28;20017;-90
2023/04/22 18:31:35;;;;;;;8.23;5.53;;;15.20;98.10;;;;;;10406300;28;20017;-90
2023/04/22 18:36:35;;;;;;;11.27;6.30;;;15.50;98.20;;;;;;10412367;28;20401;-90
2023/04/22 18:41:39;;;;;;;9.75;5.65;;;15.90;98.30;;;;;;10400530;28;20025;-90
2023/04/22 18:46:40;;;;;;;7.85;5.68;;;15.50;98.20;;;;;;10393434;28;20043;-91
2023/04/22 18:51:40;;;;;;;9.68;6.10;;;15.50;98.20;;;;;;10406304;28;20051;-90
2023/04/22 18:56:41;;;;;;;11.07;5.72;;;15.00;98.10;;;;;;10403766;28;20020;-88
2023/04/22 19:01:42;;;;;;;9.00;5.43;;;16.00;98.30;;;;;;10404551;28;20154;-88
2023/04/22 19:06:42;;;;;;;11.70;6.38;;;15.10;98.10;;;;;;10401654;28;20029;-88
2023/04/22 19:11:43;;;;;;;8.60;5.40;;;15.70;98.30;;;;;;10407121;28;20064;-88
2023/04/22 19:16:44;;;;;;;8.50;5.63;;;15.80;98.30;;;;;;10403607;28;20025;-88
2023/04/22 19:21:44;;;;;;;9.23;5.75;;;15.30;98.20;;;;;;10406613;28;20095;-90
2023/04/22 19:26:45;;;;;;;11.35;6.30;;;15.70;98.30;;;;;;10403472;28;20017;-89
2023/04/22 19:31:45;;;;;;;9.13;5.82;;;15.30;98.20;;;;;;10425119;28;20055;-88
2023/04/22 19:36:47;;;;;;;11.65;6.30;;;15.40;98.20;;;;;;10402409;28;20173;-89
2023/04/22 19:41:48;;;;;;;9.23;5.68;;;15.40;98.20;;;;;;10410262;28;20130;-88
2023/04/22 19:46:49;;;;;;;9.32;5.80;;;15.40;98.50;;;;;;10403221;28;20100;-88
2023/04/22 19:51:51;;;;;;;9.02;5.72;;;14.70;98.00;;;;;;10406026;28;20024;-90
2023/04/22 19:56:52;;;;;;;8.30;5.47;;;15.20;98.10;;;;;;10405058;28;20029;-91
2023/04/22 20:01:53;;;;;;;10.55;6.15;;;14.70;98.00;;;;;;10405735;28;20568;-91
2023/04/22 20:06:54;;;;;;;9.88;6.05;;;14.70;98.00;;;;;;10397974;28;20045;-92
2023/04/22 20:11:55;;;;;;;9.38;6.70;;;14.60;98.00;;;;;;10395641;28;20024;-91
2023/04/22 20:16:56;;;;;;;8.90;6.10;;;14.60;98.00;;;;;;10407509;28;20477;-91
2023/04/22 20:21:58;;;;;;;9.48;6.18;;;14.60;97.90;;;;;;10399480;28;20087;-89
2023/04/22 20:26:59;;;;;;;9.93;5.93;;;15.30;98.10;;;;;;10411611;28;20079;-91
2023/04/22 20:32:03;;;;;;;11.88;6.78;;;14.80;98.00;;;;;;10415097;28;20061;-89
2023/04/22 20:37:08;;;;;;;12.10;6.25;;;14.50;97.90;;;;;;10407435;28;20532;-88
2023/04/22 20:42:10;;;;;;;11.18;6.28;;;14.50;97.90;;;;;;10411845;28;20567;-90
2023/04/22 20:47:12;;;;;;;9.05;5.75;;;14.40;97.90;;;;;;10414057;28;20064;-91
2023/04/22 20:52:13;;;;;;;10.27;6.15;;;15.40;98.10;;;;;;10407237;28;20032;-90
2023/04/22 20:57:13;;;;;;;8.80;5.85;;;15.40;98.10;;;;;;10414012;28;20026;-90
2023/04/22 21:02:15;;;;;;;9.88;5.78;;;14.30;97.90;;;;;;10405748;28;20125;-90
2023/04/22 21:07:16;;;;;;;9.95;5.93;;;14.30;97.90;;;;;;10406100;28;20416;-90
2023/04/22 21:12:18;;;;;;;10.80;6.53;;;14.30;97.90;;;;;;10411115;28;20040;-90
2023/04/22 21:17:23;;;;;;;8.27;5.57;;;14.20;97.80;;;;;;10405974;28;20064;-91
2023/04/22 21:22:24;;;;;;;8.93;5.50;;;14.20;97.90;;;;;;10405991;28;20022;-90
2023/04/22 21:27:25;;;;;;;10.15;5.32;;;14.20;97.80;;;;;;10405908;28;20029;-90
2023/04/22 21:32:26;;;;;;;9.73;6.15;;;14.20;97.80;;;;;;10402130;28;20030;-87
2023/04/22 21:37:27;;;;;;;8.52;5.43;;;15.00;98.00;;;;;;10406913;28;20685;-87
2023/04/22 21:42:27;;;;;;;8.02;5.38;;;14.10;97.70;;;;;;10410271;28;20026;-88
2023/04/22 21:47:28;;;;;;;8.13;4.80;;;15.00;97.90;;;;;;10414916;28;20053;-87
2023/04/22 21:52:28;;;;;;;7.95;4.68;;;14.40;98.00;;;;;;10406477;28;20025;-86
2023/04/22 21:57:29;;;;;;;7.70;5.15;;;14.00;97.70;;;;;;10409536;28;20521;-86
2023/04/22 22:02:30;;;;;;;9.38;5.38;;;14.70;97.90;;;;;;10413996;28;20026;-88
2023/04/22 22:07:30;;;;;;;7.78;4.85;;;15.20;98.20;;;;;;10414267;28;20037;-86
2023/04/22 22:12:31;;;;;;;8.93;5.47;;;13.90;97.70;;;;;;10414817;28;20029;-87
2023/04/22 22:17:33;;;;;;;8.18;5.25;;;14.50;97.80;;;;;;10409267;28;20025;-87
2023/04/22 22:22:33;;;;;;;8.13;4.70;;;13.90;97.60;;;;;;10405312;28;20057;-87
2023/04/22 22:27:35;;;;;;;7.90;4.57;;;14.80;97.80;;;;;;10416015;28;20021;-87
2023/04/22 22:32:37;;;;;;;8.32;4.93;;;13.80;97.60;;;;;;10405569;28;20030;-87
2023/04/22 22:37:37;;;;;;;8.30;5.18;;;13.80;97.60;;;;;;10394280;28;20028;-86
2023/04/22 22:42:38;;;;;;;8.65;5.15;;;14.20;97.60;;;;;;10411808;28;20025;-86
2023/04/22 22:47:39;;;;;;;9.15;4.78;;;13.70;97.50;;;;;;10398120;28;20307;-87
2023/04/22 22:52:39;;;;;;;7.80;4.60;;;13.70;97.50;;;;;;10408372;28;20029;-87
2023/04/22 22:57:40;;;;;;;7.25;4.55;;;13.70;97.50;;;;;;10412354;28;20025;-87
2023/04/22 23:02:41;;;;;;;7.35;4.50;;;13.60;97.40;;;;;;10407388;28;20071;-87
2023/04/22 23:07:41;;;;;;;9.23;5.40;;;14.10;97.50;;;;;;10406997;28;20045;-87
2023/04/22 23:12:42;;;;;;;8.32;4.78;;;13.60;97.40;;;;;;10409750;28;20029;-89
2023/04/22 23:17:43;;;;;;;8.07;4.90;;;14.20;97.60;;;;;;10399143;28;20062;-90
2023/04/22 23:22:44;;;;;;;6.97;4.82;;;13.60;97.40;;;;;;10402324;28;20022;-90
2023/04/22 23:27:45;;;;;;;7.25;4.65;;;13.50;97.30;;;;;;10414862;28;20469;-89
2023/04/22 23:32:46;;;;;;;7.80;4.68;;;13.50;97.30;;;;;;10404943;28;20037;-89
2023/04/22 23:37:50;;;;;;;6.97;4.35;;;14.20;97.50;;;;;;10412209;28;20021;-89
2023/04/22 23:42:51;;;;;;;7.63;4.50;;;13.50;97.30;;;;;;10416598;28;20017;-89
2023/04/22 23:47:52;;;;;;;7.45;4.80;;;13.50;97.30;;;;;;10414609;28;20501;-89
2023/04/22 23:52:52;;;;;;;7.40;4.53;;;13.40;97.20;;;;;;10409762;28;20495;-91
2023/04/22 23:57:54;;;;;;;6.32;4.38;;;13.40;97.20;;;;;;10415179;28;20103;-89
